Time;durP1;ratioP1;P1;durP2;ratioP2;P2;SDS_P1;SDS_P2;PMS_P1;PMS_P2;Temp;Humidity;BMP_temperature;BMP_pressure;BME280_temperature;BME280_humidity;BME280_pressure;Samples;Min_cycle;Max_cycle;Signal;HPM_P1;HPM_P2
2023/05/17 00:00:32;;;;;;;11.25;2.95;;;9.90;99.90;;;;;;5114186;28;20061;-74
2023/05/17 00:02:57;;;;;;;15.43;3.55;;;9.80;99.90;;;;;;5114056;28;20089;-74
2023/05/17 00:05:23;;;;;;;11.02;3.05;;;9.80;99.90;;;;;;5113692;28;20063;-74
2023/05/17 00:07:49;;;;;;;13.95;3.50;;;9.80;99.90;;;;;;5113750;28;20039;-74
2023/05/17 00:10:14;;;;;;;18.48;4.93;;;9.70;99.90;;;;;;5113708;28;20114;-74
2023/05/17 00:12:40;;;;;;;16.83;3.70;;;9.70;99.90;;;;;;5113946;28;20468;-74
2023/05/17 00:15:06;;;;;;;13.40;2.67;;;9.70;99.90;;;;;;5113745;28;20043;-74
2023/05/17 00:17:31;;;;;;;17.63;3.17;;;9.70;99.90;;;;;;5113385;28;20035;-74
2023/05/17 00:19:57;;;;;;;13.90;3.33;;;9.70;99.90;;;;;;5113645;28;20040;-74
2023/05/17 00:22:23;;;;;;;10.73;2.50;;;9.70;99.90;;;;;;5113597;28;20438;-74
2023/05/17 00:24:48;;;;;;;17.52;4.30;;;9.80;99.90;;;;;;5112878;28;20032;-74
2023/05/17 00:27:14;;;;;;;18.85;3.67;;;9.80;99.90;;;;;;5113508;28;20115;-74
2023/05/17 00:29:39;;;;;;;13.23;3.50;;;9.80;99.90;;;;;;5113582;28;20035;-74
2023/05/17 00:32:05;;;;;;;20.52;3.90;;;9.80;99.90;;;;;;5113468;28;20043;-74
2023/05/17 00:34:31;;;;;;;19.33;4.63;;;9.80;99.90;;;;;;5113307;28;20039;-74
2023/05/17 00:36:56;;;;;;;16.15;3.17;;;9.90;99.90;;;;;;5113179;28;20035;-74
2023/05/17 00:39:22;;;;;;;18.95;4.97;;;9.90;99.90;;;;;;5111842;28;20098;-74
2023/05/17 00:41:48;;;;;;;19.50;3.97;;;9.90;99.90;;;;;;5113380;28;20039;-75
2023/05/17 00:44:13;;;;;;;11.75;2.63;;;9.90;99.90;;;;;;5112904;28;20487;-74
2023/05/17 00:46:39;;;;;;;10.68;2.97;;;9.90;99.90;;;;;;5112896;28;20163;-74
2023/05/17 00:49:05;;;;;;;15.07;3.10;;;9.90;99.90;;;;;;5112909;28;20039;-75
2023/05/17 00:51:31;;;;;;;18.25;4.13;;;9.90;99.90;;;;;;5111974;28;20039;-74
2023/05/17 00:53:57;;;;;;;22.73;4.53;;;9.80;99.90;;;;;;5112834;28;20047;-74
2023/05/17 00:56:24;;;;;;;12.02;3.47;;;9.80;99.90;;;;;;5113011;28;20036;-74
2023/05/17 00:58:49;;;;;;;16.75;3.10;;;9.80;99.90;;;;;;5112821;28;20403;-74
2023/05/17 01:01:15;;;;;;;11.90;3.35;;;9.70;99.90;;;;;;5112922;28;20031;-74
2023/05/17 01:03:41;;;;;;;14.85;3.47;;;9.70;99.90;;;;;;5112660;28;20036;-74
2023/05/17 01:06:07;;;;;;;10.95;2.95;;;9.60;99.90;;;;;;5111683;28;20039;-74
2023/05/17 01:08:33;;;;;;;19.33;3.70;;;9.60;99.90;;;;;;5112472;28;20093;-74
2023/05/17 01:11:36;;;;;;;19.08;4.10;;;9.60;99.90;;;;;;5112896;28;20055;-74
2023/05/17 01:14:17;;;;;;;17.20;3.00;;;9.60;99.90;;;;;;5112626;28;20043;-74
2023/05/17 01:17:28;;;;;;;21.55;4.47;;;9.60;99.90;;;;;;5112451;28;20043;-74
2023/05/17 01:20:06;;;;;;;16.55;3.00;;;9.70;99.90;;;;;;5111308;28;20100;-74
2023/05/17 01:22:40;;;;;;;12.82;3.08;;;9.60;99.90;;;;;;5112612;28;20039;-74
2023/05/17 01:25:32;;;;;;;15.82;3.63;;;9.60;99.90;;;;;;5111099;28;20044;-74
2023/05/17 01:28:00;;;;;;;13.25;3.03;;;9.60;99.90;;;;;;5112458;28;20036;-74
2023/05/17 01:30:27;;;;;;;14.82;3.10;;;9.60;99.90;;;;;;5112376;28;20529;-74
2023/05/17 01:32:57;;;;;;;17.88;3.03;;;9.60;99.90;;;;;;5111378;28;20414;-74
2023/05/17 01:35:24;;;;;;;9.15;3.05;;;9.50;99.90;;;;;;5111557;28;20494;-74
2023/05/17 01:37:53;;;;;;;22.00;4.22;;;9.50;99.90;;;;;;5111881;28;20573;-74
2023/05/17 01:40:19;;;;;;;14.95;4.15;;;9.50;99.90;;;;;;5112356;28;20047;-74
2023/05/17 01:42:48;;;;;;;14.75;3.55;;;9.50;99.90;;;;;;5110808;28;20036;-74
2023/05/17 01:45:20;;;;;;;15.43;3.85;;;9.50;99.90;;;;;;5112353;28;20040;-74
2023/05/17 01:47:59;;;;;;;16.48;3.08;;;9.50;99.90;;;;;;5110992;28;20529;-74
2023/05/17 01:50:29;;;;;;;14.13;2.78;;;9.50;99.90;;;;;;5112417;28;20122;-74
2023/05/17 01:53:02;;;;;;;16.30;3.53;;;9.50;99.90;;;;;;5112277;28;20054;-74
2023/05/17 01:55:40;;;;;;;22.35;3.72;;;9.50;99.90;;;;;;5111878;28;20050;-74
2023/05/17 01:58:07;;;;;;;14.18;3.60;;;9.50;99.90;;;;;;5112012;28;20047;-74
2023/05/17 02:00:34;;;;;;;13.45;3.20;;;9.50;99.90;;;;;;5111208;28;20047;-74
2023/05/17 02:03:00;;;;;;;12.38;3.08;;;9.50;99.90;;;;;;5110689;28;20051;-74
2023/05/17 02:05:25;;;;;;;15.93;3.03;;;9.50;99.90;;;;;;5110380;28;20043;-74
2023/05/17 02:07:51;;;;;;;15.75;3.08;;;9.40;99.90;;;;;;5111753;28;20157;-74
2023/05/17 02:10:16;;;;;;;10.68;2.45;;;9.40;99.90;;;;;;5111059;28;20046;-74
2023/05/17 02:12:42;;;;;;;7.25;1.88;;;9.40;99.90;;;;;;5110638;28;20122;-74
2023/05/17 02:15:10;;;;;;;11.55;2.20;;;9.40;99.90;;;;;;5111664;28;20043;-74
2023/05/17 02:17:38;;;;;;;11.43;2.80;;;9.40;99.90;;;;;;5111840;28;20048;-74
2023/05/17 02:20:05;;;;;;;10.52;2.10;;;9.40;99.90;;;;;;5111953;28;20052;-74
2023/05/17 02:22:30;;;;;;;12.05;3.00;;;9.40;99.90;;;;;;5111953;28;20039;-74
2023/05/17 02:24:56;;;;;;;14.55;2.70;;;9.30;99.90;;;;;;5111741;28;20035;-74
2023/05/17 02:27:21;;;;;;;12.25;3.03;;;9.30;99.90;;;;;;5111522;28;20072;-74
2023/05/17 02:29:47;;;;;;;11.68;2.88;;;9.30;99.90;;;;;;5111661;28;20050;-74
2023/05/17 02:32:12;;;;;;;8.65;2.17;;;9.30;99.90;;;;;;5110665;28;20043;-74
2023/05/17 02:34:38;;;;;;;11.82;2.13;;;9.30;99.90;;;;;;5111768;28;20036;-74
2023/05/17 02:37:03;;;;;;;9.57;2.53;;;9.30;99.90;;;;;;5111710;28;20118;-74
2023/05/17 02:39:32;;;;;;;12.93;3.28;;;9.20;99.90;;;;;;5111403;28;20124;-74
2023/05/17 02:41:58;;;;;;;11.18;2.08;;;9.20;99.90;;;;;;5110317;28;20039;-74
2023/05/17 02:44:23;;;;;;;12.40;2.50;;;9.20;99.90;;;;;;5111415;28;20128;-74
2023/05/17 02:46:49;;;;;;;12.18;2.22;;;9.20;99.90;;;;;;5111754;28;20039;-74
2023/05/17 02:49:14;;;;;;;8.75;1.52;;;9.20;99.90;;;;;;5115448;28;20035;-74
2023/05/17 02:51:40;;;;;;;11.63;1.98;;;9.20;99.90;;;;;;5115467;28;20047;-74
2023/05/17 02:54:05;;;;;;;9.95;1.85;;;9.20;99.90;;;;;;5115229;28;20039;-74
2023/05/17 02:56:31;;;;;;;9.32;2.50;;;9.10;99.90;;;;;;5115009;28;20071;-75
2023/05/17 02:59:00;;;;;;;6.78;1.98;;;9.20;99.90;;;;;;5114933;28;20114;-74
2023/05/17 03:01:26;;;;;;;7.88;1.77;;;9.10;99.90;;;;;;5114438;28;20387;-74
2023/05/17 03:03:51;;;;;;;11.45;2.78;;;9.10;99.90;;;;;;5115167;28;20038;-74
2023/05/17 03:06:17;;;;;;;13.02;3.10;;;9.10;99.90;;;;;;5114070;28;20118;-74
2023/05/17 03:08:43;;;;;;;11.43;2.72;;;9.00;99.90;;;;;;5113698;28;20043;-74
2023/05/17 03:11:08;;;;;;;10.43;2.45;;;9.10;99.90;;;;;;5115024;28;20036;-74
2023/05/17 03:13:34;;;;;;;10.85;1.88;;;9.10;99.90;;;;;;5114701;28;20043;-74
2023/05/17 03:15:59;;;;;;;15.88;2.67;;;9.20;99.90;;;;;;5096634;28;20040;-74
2023/05/17 03:18:25;;;;;;;16.75;2.80;;;9.10;99.90;;;;;;5114889;28;20047;-74
2023/05/17 03:20:50;;;;;;;9.82;2.03;;;9.10;99.90;;;;;;5115112;28;20036;-74
2023/05/17 03:23:16;;;;;;;10.18;2.25;;;9.10;99.90;;;;;;5114894;28;20035;-74
2023/05/17 03:25:41;;;;;;;9.13;1.63;;;9.10;99.90;;;;;;5114600;28;20029;-74
2023/05/17 03:28:07;;;;;;;11.55;2.92;;;9.10;99.90;;;;;;5114386;28;20028;-74
2023/05/17 03:30:33;;;;;;;11.90;2.00;;;9.10;99.90;;;;;;5114738;28;20039;-74
2023/05/17 03:32:58;;;;;;;14.77;2.90;;;9.10;99.90;;;;;;5114731;28;20040;-74
2023/05/17 03:35:24;;;;;;;8.65;2.65;;;9.00;99.90;;;;;;5114270;28;20040;-74
2023/05/17 03:37:49;;;;;;;6.40;1.77;;;9.00;99.90;;;;;;5114434;28;20067;-74
2023/05/17 03:40:15;;;;;;;10.68;1.85;;;9.00;99.90;;;;;;5113027;28;20490;-74
2023/05/17 03:42:40;;;;;;;8.70;1.83;;;9.10;99.90;;;;;;5114272;28;20119;-74
2023/05/17 03:45:06;;;;;;;10.23;2.22;;;9.10;99.90;;;;;;5114241;28;20089;-74
2023/05/17 03:47:32;;;;;;;10.80;3.03;;;9.10;99.90;;;;;;5114207;28;20490;-74
2023/05/17 03:49:58;;;;;;;14.63;3.97;;;9.00;99.90;;;;;;5114386;28;20115;-74
2023/05/17 03:52:23;;;;;;;8.65;1.77;;;9.00;99.90;;;;;;5114233;28;20043;-74
2023/05/17 03:54:50;;;;;;;13.48;2.92;;;9.00;99.90;;;;;;5114065;28;20043;-74
2023/05/17 03:57:15;;;;;;;5.72;1.85;;;9.00;99.90;;;;;;5113428;28;20044;-74
2023/05/17 03:59:41;;;;;;;10.73;2.13;;;9.00;99.90;;;;;;5113343;28;20042;-74
2023/05/17 04:02:06;;;;;;;7.38;2.03;;;9.00;99.90;;;;;;5114145;28;20027;-74
2023/05/17 04:04:32;;;;;;;7.65;2.10;;;8.90;99.90;;;;;;5113876;28;20068;-74
2023/05/17 04:06:58;;;;;;;9.75;1.95;;;8.90;99.90;;;;;;5112503;28;20491;-74
2023/05/17 04:09:24;;;;;;;10.00;2.38;;;8.90;99.90;;;;;;5112401;28;20050;-74
2023/05/17 04:11:50;;;;;;;7.90;2.05;;;8.90;99.90;;;;;;5113731;28;20031;-74
2023/05/17 04:14:17;;;;;;;13.00;2.25;;;8.90;99.90;;;;;;5112635;28;20042;-74
2023/05/17 04:16:42;;;;;;;8.57;1.60;;;8.90;99.90;;;;;;5113859;28;20043;-74
2023/05/17 04:19:08;;;;;;;11.95;1.98;;;8.90;99.90;;;;;;5112271;28;20040;-74
2023/05/17 04:21:33;;;;;;;7.72;2.20;;;8.90;99.90;;;;;;5113674;28;20032;-74
2023/05/17 04:23:59;;;;;;;10.43;1.60;;;8.90;99.90;;;;;;5113507;28;20119;-74
2023/05/17 04:26:25;;;;;;;8.20;1.50;;;9.00;99.90;;;;;;5113334;28;20042;-75
2023/05/17 04:28:51;;;;;;;9.55;1.67;;;9.00;99.90;;;;;;5113543;28;20116;-74
2023/05/17 04:31:17;;;;;;;4.35;1.58;;;9.00;99.90;;;;;;5113587;28;20499;-74
2023/05/17 04:33:42;;;;;;;8.45;1.95;;;9.00;99.90;;;;;;5113213;28;20041;-74
2023/05/17 04:36:08;;;;;;;8.60;2.00;;;9.00;99.90;;;;;;5113361;28;20086;-74
2023/05/17 04:38:34;;;;;;;7.13;2.22;;;9.10;99.90;;;;;;5111739;28;20483;-74
2023/05/17 04:41:04;;;;;;;9.20;1.33;;;9.00;99.90;;;;;;5112206;28;20040;-74
2023/05/17 04:43:31;;;;;;;7.35;1.98;;;8.90;99.90;;;;;;5111790;28;20552;-74
2023/05/17 04:45:57;;;;;;;11.20;1.52;;;9.00;99.90;;;;;;5111976;28;20039;-74
2023/05/17 04:48:24;;;;;;;7.60;1.90;;;9.00;99.90;;;;;;5111960;28;20388;-74
2023/05/17 04:50:50;;;;;;;8.70;1.77;;;9.00;99.90;;;;;;5113230;28;20110;-74
2023/05/17 04:53:15;;;;;;;5.18;2.30;;;9.10;99.90;;;;;;5113005;28;20490;-74
2023/05/17 04:55:41;;;;;;;11.93;1.63;;;9.10;99.90;;;;;;5112669;28;20035;-74
2023/05/17 04:58:06;;;;;;;3.78;1.38;;;9.10;99.90;;;;;;5112982;28;20035;-75
2023/05/17 05:00:32;;;;;;;7.03;1.15;;;9.10;99.90;;;;;;5112960;28;20174;-74
2023/05/17 05:02:58;;;;;;;7.43;1.85;;;9.10;99.90;;;;;;5112961;28;20089;-74
2023/05/17 05:05:24;;;;;;;4.78;1.40;;;9.20;99.90;;;;;;5134054;22;20057;-68
2023/05/17 05:07:50;;;;;;;8.75;1.48;;;9.20;99.90;;;;;;5132057;28;20038;-68
2023/05/17 05:10:15;;;;;;;7.53;1.27;;;9.30;99.90;;;;;;5132320;27;20508;-67
2023/05/17 05:12:41;;;;;;;8.27;1.48;;;9.40;99.90;;;;;;5132469;28;20439;-68
2023/05/17 05:15:07;;;;;;;8.80;2.17;;;9.40;99.90;;;;;;5132449;28;20487;-68
2023/05/17 05:17:33;;;;;;;5.15;1.60;;;9.40;99.90;;;;;;5131860;28;20039;-67
2023/05/17 05:19:58;;;;;;;13.27;1.60;;;9.40;99.90;;;;;;5132304;28;20118;-67
2023/05/17 05:22:24;;;;;;;6.50;1.38;;;9.40;99.90;;;;;;5132286;28;20448;-68
2023/05/17 05:24:50;;;;;;;9.65;1.75;;;9.40;99.90;;;;;;5132007;28;20505;-68
2023/05/17 05:27:16;;;;;;;7.85;1.80;;;9.50;99.90;;;;;;5132112;28;20106;-67
2023/05/17 05:29:41;;;;;;;7.43;1.60;;;9.50;99.90;;;;;;5113953;28;20490;-69
2023/05/17 05:32:07;;;;;;;5.40;2.30;;;9.50;99.90;;;;;;5132191;28;20478;-68
2023/05/17 05:34:33;;;;;;;8.43;1.73;;;9.60;99.90;;;;;;5132010;28;20391;-67
2023/05/17 05:36:59;;;;;;;8.23;1.63;;;9.50;99.90;;;;;;5131883;28;20035;-68
2023/05/17 05:39:26;;;;;;;7.75;1.60;;;9.50;99.90;;;;;;5131779;28;20494;-69
2023/05/17 05:41:52;;;;;;;7.40;1.58;;;9.40;99.90;;;;;;5131902;28;20502;-68
2023/05/17 05:44:17;;;;;;;7.75;2.08;;;9.50;99.90;;;;;;5131900;28;20042;-66
2023/05/17 05:46:43;;;;;;;6.88;1.48;;;9.60;99.90;;;;;;5131851;28;20478;-66
2023/05/17 05:49:09;;;;;;;8.02;1.67;;;9.50;99.90;;;;;;5131750;28;20505;-67
2023/05/17 05:51:35;;;;;;;9.07;1.95;;;9.50;99.90;;;;;;5131798;28;20043;-67
2023/05/17 05:54:00;;;;;;;9.70;1.75;;;9.40;99.90;;;;;;5131648;28;20116;-67
2023/05/17 05:56:26;;;;;;;6.78;1.42;;;9.50;99.90;;;;;;5131864;28;20039;-67
2023/05/17 05:58:55;;;;;;;9.05;1.95;;;9.50;99.90;;;;;;5131527;28;20489;-67
2023/05/17 06:01:21;;;;;;;7.45;1.50;;;9.60;99.90;;;;;;5131795;28;20023;-66
2023/05/17 06:03:46;;;;;;;8.50;1.40;;;9.80;99.90;;;;;;5094747;28;1037836;-66
2023/05/17 06:06:13;;;;;;;6.60;1.67;;;10.20;99.90;;;;;;5132341;28;20212;-67
2023/05/17 06:08:39;;;;;;;12.13;2.47;;;10.40;99.90;;;;;;5132354;28;20410;-67
2023/05/17 06:11:05;;;;;;;6.63;1.73;;;10.90;99.90;;;;;;5132669;28;20038;-67
2023/05/17 06:13:30;;;;;;;9.52;1.60;;;11.40;99.90;;;;;;5132497;28;20074;-67
2023/05/17 06:15:56;;;;;;;9.40;2.13;;;11.60;99.90;;;;;;5132567;28;20047;-67
2023/05/17 06:18:22;;;;;;;10.98;2.88;;;11.60;99.90;;;;;;5132143;28;20039;-67
2023/05/17 06:20:47;;;;;;;16.13;2.28;;;11.50;99.90;;;;;;5131972;28;20057;-67
2023/05/17 06:23:14;;;;;;;8.25;1.80;;;11.30;99.40;;;;;;5135010;27;20036;-68
2023/05/17 06:25:39;;;;;;;9.13;1.90;;;11.10;99.00;;;;;;5136502;27;20419;-67
2023/05/17 06:28:05;;;;;;;12.35;3.08;;;11.00;99.40;;;;;;5136325;27;20085;-67
2023/05/17 06:30:30;;;;;;;8.60;2.30;;;10.70;99.50;;;;;;5136303;27;20043;-67
2023/05/17 06:32:56;;;;;;;13.77;2.25;;;10.70;99.90;;;;;;5136287;27;20038;-67
2023/05/17 06:35:21;;;;;;;15.88;2.35;;;10.50;99.90;;;;;;5135938;27;20406;-66
2023/05/17 06:37:47;;;;;;;7.72;1.83;;;10.40;99.90;;;;;;5136273;27;20519;-67
2023/05/17 06:40:13;;;;;;;10.95;2.10;;;10.30;99.90;;;;;;5136263;27;20058;-67
2023/05/17 06:42:39;;;;;;;7.65;2.17;;;10.20;99.90;;;;;;5136211;27;20039;-67
2023/05/17 06:45:05;;;;;;;7.65;2.15;;;10.10;99.90;;;;;;5135961;27;20045;-67
2023/05/17 06:47:31;;;;;;;11.82;2.63;;;10.10;99.90;;;;;;5135689;27;20494;-68
2023/05/17 06:49:56;;;;;;;9.43;3.13;;;9.90;99.90;;;;;;5135771;27;20042;-66
2023/05/17 06:52:22;;;;;;;14.68;2.85;;;10.00;99.90;;;;;;5135904;27;20051;-67
2023/05/17 06:54:48;;;;;;;11.00;2.72;;;9.90;99.90;;;;;;5135928;27;20043;-67
2023/05/17 06:57:13;;;;;;;11.68;2.42;;;10.00;99.90;;;;;;5135650;27;20402;-67
2023/05/17 06:59:39;;;;;;;10.68;2.17;;;9.90;99.90;;;;;;5135745;27;20062;-67
2023/05/17 07:02:05;;;;;;;10.45;2.45;;;9.80;99.90;;;;;;5135858;27;20024;-67
2023/05/17 07:04:30;;;;;;;13.73;3.00;;;10.00;99.90;;;;;;5135384;27;20088;-67
2023/05/17 07:06:56;;;;;;;12.30;2.15;;;10.10;99.90;;;;;;5135524;27;20039;-67
2023/05/17 07:09:22;;;;;;;9.57;2.13;;;10.30;99.90;;;;;;5135481;27;20134;-67
2023/05/17 07:11:47;;;;;;;11.25;2.70;;;10.20;99.90;;;;;;5135727;27;20039;-68
2023/05/17 07:14:13;;;;;;;13.13;2.05;;;10.30;99.60;;;;;;5135467;27;20119;-67
2023/05/17 07:16:39;;;;;;;13.98;2.78;;;10.30;98.90;;;;;;5135431;27;20043;-67
2023/05/17 07:19:05;;;;;;;8.38;1.55;;;10.30;98.00;;;;;;5135120;27;20050;-67
2023/05/17 07:21:31;;;;;;;9.50;1.45;;;10.30;97.20;;;;;;5135466;27;20375;-67
2023/05/17 07:23:57;;;;;;;7.88;2.15;;;10.40;97.10;;;;;;5134864;27;20042;-69
2023/05/17 07:26:23;;;;;;;10.45;2.15;;;10.50;97.00;;;;;;5134999;27;20035;-69
2023/05/17 07:28:48;;;;;;;9.35;1.73;;;10.50;96.80;;;;;;5134865;27;20042;-69
2023/05/17 07:31:14;;;;;;;13.45;2.72;;;10.40;95.40;;;;;;5135041;27;20536;-69
2023/05/17 07:33:40;;;;;;;6.72;2.13;;;10.60;96.10;;;;;;5133700;27;20038;-69
2023/05/17 07:36:06;;;;;;;9.90;2.42;;;10.60;96.80;;;;;;5134903;27;20584;-70
2023/05/17 07:38:34;;;;;;;9.90;1.98;;;10.60;97.20;;;;;;5134959;27;20089;-69
2023/05/17 07:41:00;;;;;;;5.32;1.98;;;10.70;97.10;;;;;;5134954;27;20502;-69
2023/05/17 07:43:25;;;;;;;14.63;3.58;;;10.70;97.10;;;;;;5134933;27;20599;-69
2023/05/17 07:45:51;;;;;;;12.38;1.98;;;10.70;97.10;;;;;;5116311;27;20047;-70
2023/05/17 07:48:17;;;;;;;12.00;2.22;;;10.80;97.80;;;;;;5116221;27;20073;-69
2023/05/17 07:50:43;;;;;;;8.98;2.20;;;10.60;97.10;;;;;;5134713;27;20039;-68
2023/05/17 07:53:09;;;;;;;7.50;1.80;;;10.70;97.10;;;;;;5134945;27;20058;-69
2023/05/17 07:55:35;;;;;;;14.65;3.03;;;10.60;97.90;;;;;;5116351;27;20406;-69
2023/05/17 07:58:00;;;;;;;9.27;2.00;;;10.40;96.90;;;;;;5134658;27;20035;-68
2023/05/17 08:00:26;;;;;;;7.38;1.95;;;10.50;97.40;;;;;;5134727;27;20050;-69
2023/05/17 08:02:52;;;;;;;5.85;1.70;;;10.50;98.30;;;;;;5134405;27;20031;-69
2023/05/17 08:05:17;;;;;;;10.30;2.58;;;10.50;98.30;;;;;;5134387;27;20035;-69
2023/05/17 08:07:43;;;;;;;7.35;1.90;;;10.60;98.80;;;;;;5134340;27;20420;-69
2023/05/17 08:10:09;;;;;;;7.40;2.22;;;10.60;98.40;;;;;;5134637;27;20038;-69
2023/05/17 08:12:35;;;;;;;12.07;2.10;;;10.50;97.80;;;;;;5134531;27;20039;-69
2023/05/17 08:15:00;;;;;;;12.45;3.13;;;10.30;97.30;;;;;;5134398;27;20471;-69
2023/05/17 08:17:26;;;;;;;11.38;2.13;;;10.30;97.50;;;;;;5134089;27;20058;-69
2023/05/17 08:19:51;;;;;;;16.30;2.47;;;10.40;98.40;;;;;;5134404;27;20039;-69
2023/05/17 08:22:17;;;;;;;9.13;1.90;;;10.50;99.20;;;;;;5134219;27;20039;-69
2023/05/17 08:24:46;;;;;;;13.27;2.25;;;10.50;98.80;;;;;;5134322;27;20039;-69
2023/05/17 08:27:11;;;;;;;12.63;2.80;;;10.50;98.90;;;;;;5134014;27;20042;-68
2023/05/17 08:29:37;;;;;;;13.63;2.25;;;10.50;99.30;;;;;;5134082;27;20047;-69
2023/05/17 08:32:03;;;;;;;6.78;1.35;;;10.70;99.30;;;;;;5134040;27;20517;-69
2023/05/17 08:34:28;;;;;;;14.10;2.05;;;10.80;99.50;;;;;;5133791;27;20040;-69
2023/05/17 08:36:54;;;;;;;10.65;1.83;;;10.80;97.90;;;;;;5133889;27;20087;-69
2023/05/17 08:39:20;;;;;;;10.52;1.35;;;10.90;97.30;;;;;;5133837;27;20047;-70
2023/05/17 08:41:47;;;;;;;8.13;1.60;;;11.30;96.50;;;;;;5133890;27;20027;-69
2023/05/17 08:44:15;;;;;;;12.57;1.90;;;11.40;97.20;;;;;;5133740;27;20039;-69
2023/05/17 08:46:43;;;;;;;9.52;2.13;;;11.30;96.50;;;;;;5114709;27;20050;-69
2023/05/17 08:49:11;;;;;;;6.18;1.30;;;11.20;95.90;;;;;;5115514;27;20042;-69
2023/05/17 08:51:38;;;;;;;10.48;1.45;;;11.20;95.10;;;;;;5115478;27;20550;-69
2023/05/17 08:54:05;;;;;;;9.43;1.65;;;11.20;94.40;;;;;;5114993;27;20044;-68
2023/05/17 08:56:31;;;;;;;7.82;2.13;;;11.40;93.30;;;;;;5115297;27;20046;-69
2023/05/17 08:58:58;;;;;;;5.97;1.20;;;11.40;92.40;;;;;;5114897;27;20039;-69
2023/05/17 09:01:23;;;;;;;8.30;1.67;;;11.40;92.70;;;;;;5133412;27;20393;-69
2023/05/17 09:03:49;;;;;;;7.97;1.65;;;11.40;93.80;;;;;;5133244;27;20031;-69
2023/05/17 09:06:24;;;;;;;6.60;1.95;;;11.30;94.90;;;;;;5133465;27;20084;-69
2023/05/17 09:08:53;;;;;;;8.20;1.58;;;11.20;92.90;;;;;;5133325;27;20443;-69
2023/05/17 09:11:27;;;;;;;5.90;1.58;;;11.10;93.40;;;;;;5133195;27;20054;-69
2023/05/17 09:13:53;;;;;;;6.90;1.80;;;11.00;92.90;;;;;;5132951;27;20031;-68
2023/05/17 09:16:20;;;;;;;6.20;1.80;;;11.10;93.70;;;;;;5114558;27;20520;-69
2023/05/17 09:18:56;;;;;;;4.57;1.30;;;11.30;95.20;;;;;;5114507;27;20555;-69
2023/05/17 09:21:23;;;;;;;7.90;1.60;;;11.30;94.60;;;;;;5133170;27;20250;-69
2023/05/17 09:23:51;;;;;;;8.00;2.53;;;11.30;94.30;;;;;;5132949;27;20035;-69
2023/05/17 09:26:19;;;;;;;8.27;1.25;;;11.30;94.50;;;;;;5132790;27;20037;-69
2023/05/17 09:28:46;;;;;;;7.57;1.48;;;11.20;94.00;;;;;;5114751;27;20047;-69
2023/05/17 09:31:15;;;;;;;7.50;2.58;;;11.30;94.20;;;;;;5114748;27;20087;-69
2023/05/17 09:33:50;;;;;;;7.00;1.50;;;11.20;94.20;;;;;;5132728;27;20410;-68
2023/05/17 09:36:22;;;;;;;7.05;2.08;;;11.00;94.40;;;;;;5132898;27;20035;-69
2023/05/17 09:39:03;;;;;;;11.90;2.42;;;11.10;95.60;;;;;;5114113;27;20057;-69
2023/05/17 09:41:32;;;;;;;6.70;1.98;;;11.10;95.30;;;;;;5114526;27;20046;-70
2023/05/17 09:44:06;;;;;;;6.68;1.40;;;11.10;95.50;;;;;;5114237;28;20039;-69
2023/05/17 09:46:34;;;;;;;11.93;1.60;;;11.10;95.90;;;;;;5132673;27;20495;-69
2023/05/17 09:49:03;;;;;;;7.30;1.70;;;11.10;95.70;;;;;;5132484;27;20067;-69
2023/05/17 09:51:33;;;;;;;6.25;1.40;;;11.20;95.60;;;;;;5132848;27;20118;-69
2023/05/17 09:53:59;;;;;;;8.32;1.67;;;11.40;96.50;;;;;;5114136;28;20482;-69
2023/05/17 09:56:28;;;;;;;9.55;2.40;;;11.70;96.80;;;;;;5131988;27;20082;-68
2023/05/17 09:58:54;;;;;;;7.18;1.50;;;11.50;94.60;;;;;;5132341;28;20047;-69
2023/05/17 10:01:21;;;;;;;8.85;2.28;;;11.70;94.50;;;;;;5114326;28;20087;-69
2023/05/17 10:03:47;;;;;;;6.60;1.48;;;12.00;94.00;;;;;;5132105;28;20046;-69
2023/05/17 10:06:17;;;;;;;7.97;1.85;;;12.10;93.40;;;;;;5132565;28;20045;-69
2023/05/17 10:08:47;;;;;;;10.00;2.72;;;12.30;91.00;;;;;;5132595;28;20035;-69
2023/05/17 10:11:13;;;;;;;7.20;1.42;;;12.50;90.40;;;;;;5132653;28;20042;-69
2023/05/17 10:14:04;;;;;;;7.82;1.70;;;12.70;90.40;;;;;;5132434;28;20031;-69
2023/05/17 10:16:32;;;;;;;10.10;1.60;;;12.60;90.80;;;;;;5132288;28;20058;-69
2023/05/17 10:18:58;;;;;;;7.00;1.70;;;12.60;91.20;;;;;;5113977;28;20487;-69
2023/05/17 10:21:25;;;;;;;8.45;1.52;;;12.30;90.60;;;;;;5132451;28;20121;-69
2023/05/17 10:23:51;;;;;;;7.15;2.47;;;11.80;89.10;;;;;;5113507;28;20063;-72
2023/05/17 10:26:19;;;;;;;6.70;1.60;;;12.00;91.30;;;;;;5130830;28;20034;-72
2023/05/17 10:28:46;;;;;;;5.60;1.90;;;12.10;91.10;;;;;;5112920;28;20027;-73
2023/05/17 10:31:12;;;;;;;6.82;1.67;;;12.30;91.10;;;;;;5132254;28;20043;-73
2023/05/17 10:33:38;;;;;;;5.82;1.35;;;12.50;90.10;;;;;;5095754;28;20039;-73
2023/05/17 10:36:05;;;;;;;6.63;1.75;;;12.70;89.00;;;;;;5095954;28;20034;-71
2023/05/17 10:38:31;;;;;;;7.07;1.95;;;12.40;85.60;;;;;;5130741;28;20042;-72
2023/05/17 10:40:57;;;;;;;6.15;2.00;;;12.50;83.90;;;;;;5113868;28;20114;-71
2023/05/17 10:43:23;;;;;;;11.02;1.90;;;12.50;83.30;;;;;;5131437;28;20035;-72
2023/05/17 10:45:50;;;;;;;8.48;1.60;;;12.50;82.30;;;;;;5112439;28;20043;-72
2023/05/17 10:48:16;;;;;;;3.58;1.48;;;12.70;83.40;;;;;;5131074;28;20084;-72
2023/05/17 10:50:45;;;;;;;8.27;1.77;;;12.80;83.70;;;;;;5094662;28;20077;-72
2023/05/17 10:53:11;;;;;;;5.72;1.50;;;12.90;85.20;;;;;;5130290;28;20039;-72
2023/05/17 10:55:36;;;;;;;9.55;1.80;;;12.70;83.50;;;;;;5130851;28;20443;-72
2023/05/17 10:58:15;;;;;;;5.25;1.35;;;12.70;84.50;;;;;;5112996;28;20043;-72
2023/05/17 11:00:44;;;;;;;12.68;2.97;;;12.90;86.70;;;;;;5131146;28;20045;-75
2023/05/17 11:03:18;;;;;;;9.10;2.13;;;13.00;84.30;;;;;;5131873;28;20059;-71
2023/05/17 11:06:11;;;;;;;6.63;1.80;;;13.10;84.20;;;;;;5113037;28;20567;-71
2023/05/17 11:08:44;;;;;;;9.25;1.67;;;13.00;81.10;;;;;;5133332;27;20039;-71
2023/05/17 11:11:12;;;;;;;4.00;1.27;;;13.00;84.00;;;;;;5117451;27;20063;-71
2023/05/17 11:13:53;;;;;;;8.15;1.90;;;12.90;83.90;;;;;;5135485;27;20039;-71
2023/05/17 11:16:33;;;;;;;6.70;1.70;;;12.60;83.30;;;;;;5135408;27;20088;-73
2023/05/17 11:19:09;;;;;;;14.43;2.63;;;12.80;85.10;;;;;;5117038;27;20147;-73
2023/05/17 11:21:43;;;;;;;8.48;1.85;;;12.90;83.90;;;;;;5099983;27;20031;-73
2023/05/17 11:24:13;;;;;;;6.60;1.40;;;12.70;84.40;;;;;;5135299;27;20031;-72
2023/05/17 11:26:43;;;;;;;12.88;1.90;;;12.60;82.50;;;;;;5135108;27;20036;-72
2023/05/17 11:29:10;;;;;;;9.93;1.30;;;13.00;82.10;;;;;;5116812;27;20459;-74
2023/05/17 11:31:41;;;;;;;9.18;1.50;;;12.80;82.00;;;;;;5116788;27;20050;-73
2023/05/17 11:34:07;;;;;;;7.60;1.48;;;12.70;81.00;;;;;;5116642;27;20046;-74
2023/05/17 11:36:48;;;;;;;8.15;2.22;;;12.80;80.80;;;;;;5135083;27;20039;-73
2023/05/17 11:39:17;;;;;;;7.30;2.33;;;12.90;82.80;;;;;;5116588;27;20491;-72
2023/05/17 11:41:51;;;;;;;8.20;1.83;;;13.00;82.40;;;;;;5134939;27;20039;-73
2023/05/17 11:44:35;;;;;;;4.85;1.58;;;13.20;83.10;;;;;;5116430;27;20035;-73
2023/05/17 11:47:08;;;;;;;8.32;2.10;;;13.50;82.10;;;;;;5116437;27;20092;-72
2023/05/17 11:49:37;;;;;;;7.78;1.63;;;13.60;77.90;;;;;;5134735;27;20035;-73
2023/05/17 11:52:04;;;;;;;9.75;1.77;;;13.50;78.30;;;;;;5134700;27;20046;-73
2023/05/17 11:54:31;;;;;;;7.95;1.40;;;13.50;80.30;;;;;;5116228;27;20164;-73
2023/05/17 11:56:58;;;;;;;8.88;1.77;;;12.70;78.70;;;;;;5116456;27;20402;-72
2023/05/17 11:59:24;;;;;;;11.82;2.17;;;12.80;81.10;;;;;;5134487;27;20039;-73
2023/05/17 12:01:50;;;;;;;6.60;1.98;;;12.70;81.70;;;;;;5116206;27;20037;-72
2023/05/17 12:04:26;;;;;;;9.80;1.70;;;12.80;83.10;;;;;;5116173;27;20108;-73
2023/05/17 12:06:53;;;;;;;8.20;2.08;;;12.70;83.70;;;;;;5115796;27;20056;-73
2023/05/17 12:09:20;;;;;;;7.53;2.15;;;12.50;83.40;;;;;;5116191;27;20514;-73
2023/05/17 12:11:46;;;;;;;8.48;2.45;;;12.70;86.30;;;;;;5116158;27;20049;-73
2023/05/17 12:14:16;;;;;;;7.40;1.90;;;12.70;84.70;;;;;;5115827;27;20039;-73
2023/05/17 12:16:44;;;;;;;6.43;1.55;;;12.80;84.10;;;;;;5134324;27;20042;-73
2023/05/17 12:19:19;;;;;;;9.93;1.95;;;12.80;83.60;;;;;;5115300;27;20043;-73
2023/05/17 12:21:46;;;;;;;7.20;1.83;;;12.50;82.40;;;;;;5115694;27;20039;-73
2023/05/17 12:24:12;;;;;;;7.30;1.92;;;12.40;81.90;;;;;;5115583;27;20050;-72
2023/05/17 12:26:47;;;;;;;5.40;1.48;;;12.30;82.60;;;;;;5134009;27;20027;-72
2023/05/17 12:29:14;;;;;;;6.63;2.25;;;12.70;84.50;;;;;;5133967;27;20041;-74
2023/05/17 12:31:44;;;;;;;7.50;1.77;;;12.90;85.20;;;;;;5115631;27;20054;-72
2023/05/17 12:34:12;;;;;;;10.77;2.00;;;12.90;86.30;;;;;;5115748;27;20039;-72
2023/05/17 12:36:39;;;;;;;9.65;3.42;;;12.90;84.50;;;;;;5115654;27;20047;-72
2023/05/17 12:39:08;;;;;;;7.43;2.22;;;12.60;83.10;;;;;;5115358;27;20512;-72
2023/05/17 12:41:35;;;;;;;8.52;1.90;;;12.60;83.60;;;;;;5133908;27;20047;-72
2023/05/17 12:44:00;;;;;;;8.82;2.53;;;12.50;81.80;;;;;;5115221;27;20114;-71
2023/05/17 12:46:27;;;;;;;7.35;2.08;;;12.40;84.00;;;;;;5115323;27;20518;-72
2023/05/17 12:48:53;;;;;;;7.07;1.98;;;12.70;85.40;;;;;;5133664;27;20035;-72